createdAt,value
2019-04-14T00:00:53.281Z,79.34
2019-04-14T00:03:21.632Z,78.86
2019-04-14T00:05:49.752Z,79.18
2019-04-14T00:08:15.690Z,77.78
2019-04-14T00:10:42.179Z,77.74
2019-04-14T00:13:08.986Z,78.28
2019-04-14T00:15:39.541Z,79.10
2019-04-14T00:18:03.237Z,78.33
2019-04-14T00:20:29.376Z,79.16
2019-04-14T00:22:55.579Z,79.78
2019-04-14T00:25:21.667Z,80.17
2019-04-14T00:27:47.688Z,81.42
2019-04-14T00:30:15.053Z,81.36
2019-04-14T00:32:44.355Z,80.21
2019-04-14T00:35:16.741Z,81.16
2019-04-14T00:37:53.454Z,81.31
2019-04-14T00:40:26.999Z,82.21
2019-04-14T00:43:00.593Z,80.68
2019-04-14T00:45:40.482Z,81.06
2019-04-14T00:48:07.952Z,81.50
2019-04-14T00:50:29.809Z,81.79
2019-04-14T00:52:56.652Z,82.12
2019-04-14T00:55:22.645Z,83.17
2019-04-14T00:57:48.726Z,82.88
2019-04-14T01:00:17.635Z,81.16
2019-04-14T01:02:42.988Z,81.38
2019-04-14T01:05:09.305Z,81.74
2019-04-14T01:07:35.130Z,83.34
2019-04-14T01:10:01.819Z,83.71
2019-04-14T01:12:27.867Z,84.87
2019-04-14T01:14:53.970Z,85.18
2019-04-14T01:17:19.979Z,83.97
2019-04-14T01:19:46.281Z,85.18
2019-04-14T01:22:12.262Z,85.44
2019-04-14T01:24:38.219Z,85.03
2019-04-14T01:27:04.194Z,83.65
2019-04-14T01:29:30.212Z,83.32
2019-04-14T01:31:56.216Z,83.03
2019-04-14T01:34:22.085Z,83.33
2019-04-14T01:36:48.048Z,82.99
2019-04-14T01:39:13.970Z,83.59
2019-04-14T01:41:41.013Z,83.72
2019-04-14T01:44:06.941Z,84.31
2019-04-14T01:46:34.363Z,86.53
2019-04-14T01:49:00.745Z,87.63
2019-04-14T01:51:41.668Z,88.70
2019-04-14T01:54:19.290Z,88.99
2019-04-14T01:56:56.251Z,89.52
2019-04-14T01:59:22.170Z,90.07
2019-04-14T02:01:52.658Z,89.81
2019-04-14T02:04:18.601Z,89.42
2019-04-14T02:06:46.001Z,89.60
2019-04-14T02:09:12.639Z,90.02
2019-04-14T02:11:39.832Z,89.45
2019-04-14T02:14:06.101Z,89.75
2019-04-14T02:16:39.466Z,90.36
2019-04-14T02:19:00.369Z,90.90
2019-04-14T02:21:27.931Z,91.28
2019-04-14T02:23:54.053Z,91.19
2019-04-14T02:26:19.860Z,90.78
2019-04-14T02:28:46.225Z,91.56
2019-04-14T02:31:33.353Z,91.43
2019-04-14T02:34:13.008Z,90.68
2019-04-14T02:39:07.682Z,89.61
2019-04-14T02:46:36.233Z,89.46
2019-04-14T02:49:08.266Z,89.82
2019-04-14T02:51:25.697Z,89.77
2019-04-14T02:58:55.198Z,88.94
2019-04-14T03:01:27.632Z,88.81
2019-04-14T03:03:41.539Z,87.32
2019-04-14T03:06:05.388Z,87.35
2019-04-14T03:08:45.653Z,87.36
2019-04-14T03:11:01.653Z,87.30
2019-04-14T03:13:35.388Z,87.09
2019-04-14T03:15:55.854Z,86.86
2019-04-14T03:21:29.228Z,86.94
2019-04-14T03:24:07.064Z,86.31
2019-04-14T03:26:40.322Z,86.98
2019-04-14T03:29:12.827Z,87.41
2019-04-14T03:31:59.743Z,88.78
2019-04-14T03:37:18.520Z,85.59
2019-04-14T03:38:58.545Z,82.96
2019-04-14T03:43:46.432Z,82.08
2019-04-14T03:46:25.346Z,85.58
2019-04-14T03:51:24.483Z,86.07
2019-04-14T03:53:39.839Z,86.30
2019-04-14T03:55:54.162Z,83.06
2019-04-14T03:58:15.969Z,82.65
2019-04-14T04:00:42.168Z,84.41
2019-04-14T04:03:08.479Z,83.72
2019-04-14T04:05:34.504Z,83.06
2019-04-14T04:08:00.358Z,80.80
2019-04-14T04:10:27.063Z,79.84
2019-04-14T04:12:53.245Z,79.92
2019-04-14T04:15:19.304Z,82.38
2019-04-14T04:17:47.298Z,82.03
2019-04-14T04:20:21.722Z,80.60
2019-04-14T04:23:07.391Z,80.81
2019-04-14T04:25:35.375Z,82.37
2019-04-14T04:28:03.775Z,84.06
2019-04-14T04:30:34.125Z,84.15
2019-04-14T04:33:14.024Z,84.40
2019-04-14T04:35:48.132Z,84.45
2019-04-14T04:38:16.002Z,83.11
2019-04-14T04:40:41.955Z,83.90
2019-04-14T04:43:07.978Z,84.78
2019-04-14T04:45:34.172Z,83.65
2019-04-14T04:48:00.269Z,83.44
2019-04-14T04:50:26.087Z,85.48
2019-04-14T04:52:51.914Z,84.67
2019-04-14T04:55:17.816Z,84.18
2019-04-14T04:57:43.816Z,84.23
2019-04-14T05:00:11.310Z,85.91
2019-04-14T05:02:37.480Z,84.68
2019-04-14T05:05:23.138Z,85.83
2019-04-14T05:07:49.104Z,87.69
2019-04-14T05:10:17.491Z,88.66
2019-04-14T05:12:45.676Z,89.07
2019-04-14T05:15:16.627Z,87.78
2019-04-14T05:17:47.395Z,87.37
2019-04-14T05:20:13.809Z,87.00
2019-04-14T05:22:39.863Z,86.84
2019-04-14T05:25:05.804Z,87.64
2019-04-14T05:27:31.971Z,88.86
2019-04-14T05:29:58.030Z,87.53
2019-04-14T05:32:24.076Z,87.43
2019-04-14T05:34:50.242Z,88.32
2019-04-14T05:37:18.240Z,88.38
2019-04-14T05:39:44.182Z,87.28
2019-04-14T05:42:17.142Z,88.36
2019-04-14T05:44:38.237Z,87.54
2019-04-14T05:47:04.436Z,86.58
2019-04-14T05:49:38.198Z,87.54
2019-04-14T05:51:59.092Z,86.92
2019-04-14T05:54:25.241Z,87.38
2019-04-14T05:56:51.599Z,86.64
2019-04-14T05:59:17.724Z,87.02
2019-04-14T06:01:44.316Z,84.40
2019-04-14T06:04:11.365Z,83.89
2019-04-14T06:06:37.390Z,84.66
2019-04-14T06:09:06.353Z,86.79
2019-04-14T06:11:32.155Z,86.79
2019-04-14T06:13:57.977Z,87.51
2019-04-14T06:16:23.953Z,87.83
2019-04-14T06:18:49.746Z,86.66
2019-04-14T06:21:15.565Z,84.57
2019-04-14T06:23:41.351Z,83.87
2019-04-14T06:26:07.047Z,83.98
2019-04-14T06:28:32.992Z,80.31
2019-04-14T06:31:18.997Z,81.95
2019-04-14T06:33:46.660Z,85.31
2019-04-14T06:36:30.847Z,84.78
2019-04-14T06:39:07.686Z,86.75
2019-04-14T06:41:33.458Z,82.64
2019-04-14T06:43:59.174Z,84.99
2019-04-14T06:46:24.958Z,82.58
2019-04-14T06:48:50.842Z,82.28
2019-04-14T06:51:16.631Z,82.44
2019-04-14T06:53:42.326Z,81.73
2019-04-14T06:56:08.131Z,82.70
2019-04-14T06:58:33.939Z,81.38
2019-04-14T07:00:59.730Z,82.22
2019-04-14T07:03:25.681Z,81.65
2019-04-14T07:05:51.386Z,81.12
2019-04-14T07:08:17.099Z,82.70
2019-04-14T07:10:43.056Z,81.29
2019-04-14T07:13:08.732Z,81.42
2019-04-14T07:15:34.419Z,81.86
2019-04-14T07:18:00.132Z,82.85
2019-04-14T07:20:25.965Z,81.84
2019-04-14T07:22:51.685Z,81.65
2019-04-14T07:25:17.389Z,80.74
2019-04-14T07:27:43.070Z,82.57
2019-04-14T07:30:16.406Z,79.63
2019-04-14T07:33:00.643Z,79.24
2019-04-14T07:35:40.578Z,77.83
2019-04-14T07:38:10.923Z,78.87
2019-04-14T07:40:55.575Z,76.82
2019-04-14T07:43:23.243Z,76.58
2019-04-14T07:48:46.469Z,75.96
2019-04-14T07:51:14.162Z,74.31
2019-04-14T07:53:41.959Z,76.57
2019-04-14T07:56:12.783Z,76.79
2019-04-14T07:58:58.429Z,79.42
2019-04-14T08:01:28.743Z,74.59
2019-04-14T08:04:05.208Z,74.41
2019-04-14T08:06:31.773Z,75.08
2019-04-14T08:08:57.460Z,75.94
2019-04-14T08:11:23.150Z,72.45
2019-04-14T08:13:49.119Z,71.54
2019-04-14T08:16:14.813Z,75.53
2019-04-14T08:18:40.517Z,75.80
2019-04-14T08:21:06.240Z,73.82
2019-04-14T08:23:31.923Z,73.88
2019-04-14T08:25:57.782Z,72.66
2019-04-14T08:28:23.589Z,75.25
2019-04-14T08:30:49.378Z,74.57
2019-04-14T08:33:15.131Z,71.94
2019-04-14T08:35:40.811Z,73.41
2019-04-14T08:38:06.527Z,74.49
2019-04-14T08:40:32.326Z,69.65
2019-04-14T08:43:09.102Z,70.01
2019-04-14T08:45:53.343Z,76.46
2019-04-14T08:48:37.615Z,77.43
2019-04-14T08:51:08.232Z,76.83
2019-04-14T08:53:36.010Z,75.36
2019-04-14T08:56:03.689Z,74.55
2019-04-14T08:58:40.379Z,74.85
2019-04-14T09:01:10.834Z,73.00
2019-04-14T09:03:41.456Z,72.97
2019-04-14T09:06:09.211Z,73.46
2019-04-14T09:08:53.730Z,73.76
2019-04-14T09:11:21.576Z,74.24
2019-04-14T09:13:47.402Z,73.17
2019-04-14T09:16:13.094Z,71.40
2019-04-14T09:18:38.846Z,74.16
2019-04-14T09:21:04.777Z,71.44
2019-04-14T09:23:30.569Z,72.99
2019-04-14T09:25:56.359Z,73.27
2019-04-14T09:28:22.159Z,73.99
2019-04-14T09:30:48.028Z,72.19
2019-04-14T09:33:13.900Z,72.61
2019-04-14T09:35:39.757Z,72.77
2019-04-14T09:38:05.449Z,72.49
2019-04-14T09:40:31.197Z,73.86
2019-04-14T09:42:57.782Z,70.94
2019-04-14T09:45:24.034Z,70.57
2019-04-14T09:47:49.800Z,70.25
2019-04-14T09:50:15.586Z,70.10
2019-04-14T09:52:41.351Z,71.33
2019-04-14T09:55:09.538Z,70.77
2019-04-14T09:57:35.218Z,70.13
2019-04-14T10:00:01.150Z,68.63
2019-04-14T10:02:27.122Z,70.13
2019-04-14T10:04:52.803Z,69.98
2019-04-14T10:07:18.623Z,70.92
2019-04-14T10:09:44.449Z,71.61
2019-04-14T10:12:10.261Z,74.29
2019-04-14T10:14:35.967Z,70.75
2019-04-14T10:17:01.763Z,67.93
2019-04-14T10:19:27.617Z,72.27
2019-04-14T10:21:53.286Z,71.14
2019-04-14T10:24:19.016Z,69.41
2019-04-14T10:26:44.807Z,67.77
2019-04-14T10:29:10.583Z,62.31
2019-04-14T10:31:36.378Z,71.09
2019-04-14T10:34:02.076Z,71.50
2019-04-14T10:36:27.899Z,70.44
2019-04-14T10:38:53.770Z,70.64
2019-04-14T10:41:19.437Z,69.49
2019-04-14T10:43:45.218Z,69.91
2019-04-14T10:46:11.058Z,71.17
2019-04-14T10:48:36.799Z,71.34
2019-04-14T10:51:02.805Z,72.84
2019-04-14T10:53:28.723Z,70.10
2019-04-14T10:55:54.388Z,70.29
2019-04-14T10:58:20.168Z,70.10
2019-04-14T11:00:46.245Z,73.36
2019-04-14T11:03:12.020Z,72.87
2019-04-14T11:05:39.631Z,71.98
2019-04-14T11:08:05.302Z,71.66
2019-04-14T11:10:31.025Z,71.60
2019-04-14T11:12:56.773Z,70.39
2019-04-14T11:15:22.673Z,69.65
2019-04-14T11:17:48.414Z,69.59
2019-04-14T11:20:14.216Z,70.09
2019-04-14T11:22:39.936Z,70.20
2019-04-14T11:25:05.802Z,70.63
2019-04-14T11:27:31.489Z,71.64
2019-04-14T11:29:57.281Z,70.95
2019-04-14T11:32:27.624Z,70.59
2019-04-14T11:35:07.375Z,70.58
2019-04-14T11:37:37.684Z,72.37
2019-04-14T11:40:06.089Z,70.19
2019-04-14T11:42:31.892Z,71.15
2019-04-14T11:44:57.709Z,71.54
2019-04-14T11:47:23.750Z,72.98
2019-04-14T11:49:49.668Z,76.68
2019-04-14T11:52:15.539Z,81.14
2019-04-14T11:54:41.222Z,81.18
2019-04-14T11:57:06.929Z,81.61
2019-04-14T11:59:37.275Z,82.20
2019-04-14T12:02:05.062Z,82.69
2019-04-14T12:04:32.659Z,82.32
2019-04-14T12:07:12.052Z,82.86
2019-04-14T12:09:39.787Z,82.16
2019-04-14T12:12:07.650Z,82.31
2019-04-14T12:14:33.348Z,83.23
2019-04-14T12:16:59.054Z,82.81
2019-04-14T12:19:24.882Z,83.05
2019-04-14T12:21:50.595Z,82.89
2019-04-14T12:24:16.304Z,82.62
2019-04-14T12:26:42.056Z,81.36
2019-04-14T12:29:07.754Z,82.17
2019-04-14T12:31:33.636Z,82.50
2019-04-14T12:33:59.533Z,82.71
2019-04-14T12:36:25.202Z,82.63
2019-04-14T12:38:50.952Z,83.16
2019-04-14T12:41:28.755Z,81.92
2019-04-14T12:44:05.507Z,81.53
2019-04-14T12:46:38.927Z,81.70
2019-04-14T12:49:09.776Z,81.38
2019-04-14T12:51:40.449Z,81.38
2019-04-14T12:54:09.296Z,80.26
2019-04-14T12:56:39.357Z,80.79
2019-04-14T12:59:10.186Z,81.75
2019-04-14T13:01:43.759Z,81.27
2019-04-14T13:04:11.703Z,80.23
2019-04-14T13:06:37.602Z,80.75
2019-04-14T13:09:04.569Z,80.89
2019-04-14T13:11:30.443Z,78.89
2019-04-14T13:13:56.334Z,80.25
2019-04-14T13:16:22.050Z,79.88
2019-04-14T13:18:47.894Z,79.23
2019-04-14T13:21:13.707Z,80.00
2019-04-14T13:23:39.383Z,79.27
2019-04-14T13:26:05.133Z,78.92
2019-04-14T13:28:31.926Z,78.14
2019-04-14T13:30:57.803Z,77.99
2019-04-14T13:33:23.559Z,77.30
2019-04-14T13:35:49.400Z,77.93
2019-04-14T13:38:15.342Z,78.03
2019-04-14T13:40:41.185Z,77.49
2019-04-14T13:43:07.027Z,76.69
2019-04-14T13:45:32.982Z,77.28
2019-04-14T13:47:58.739Z,76.46
2019-04-14T13:50:24.534Z,76.42
2019-04-14T13:52:50.252Z,77.03
2019-04-14T13:55:16.306Z,76.65
2019-04-14T13:57:42.070Z,76.48
2019-04-14T14:00:12.965Z,76.83
2019-04-14T14:02:38.891Z,77.66
2019-04-14T14:05:04.714Z,77.94
2019-04-14T14:07:30.564Z,78.72
2019-04-14T14:09:57.214Z,77.79
2019-04-14T14:12:31.156Z,77.64
2019-04-14T14:15:15.537Z,77.48
2019-04-14T14:18:01.112Z,76.62
2019-04-14T14:20:37.993Z,75.80
2019-04-14T14:23:05.786Z,72.61
2019-04-14T14:25:36.327Z,72.21
2019-04-14T14:28:02.200Z,70.82
2019-04-14T14:30:27.958Z,65.82
2019-04-14T14:32:53.870Z,64.73
2019-04-14T14:35:19.672Z,66.00
2019-04-14T14:37:45.362Z,63.37
2019-04-14T14:40:11.183Z,66.41
2019-04-14T14:42:36.918Z,64.66
2019-04-14T14:45:22.059Z,63.35
2019-04-14T14:47:49.643Z,63.95
2019-04-14T14:50:17.349Z,64.01
2019-04-14T14:52:43.105Z,61.43
2019-04-14T14:55:08.975Z,61.76
2019-04-14T14:57:34.766Z,64.51
2019-04-14T15:00:04.163Z,66.31
2019-04-14T15:02:29.962Z,66.88
2019-04-14T15:04:55.751Z,65.23
2019-04-14T15:07:21.462Z,68.14
2019-04-14T15:09:47.241Z,66.51
2019-04-14T15:12:13.010Z,65.89
2019-04-14T15:14:38.718Z,66.24
2019-04-14T15:17:04.427Z,66.22
2019-04-14T15:19:30.138Z,65.30
2019-04-14T15:21:56.043Z,65.80
2019-04-14T15:24:21.818Z,66.70
2019-04-14T15:26:47.489Z,67.01
2019-04-14T15:29:13.314Z,66.93
2019-04-14T15:31:39.146Z,66.45
2019-04-14T15:34:04.827Z,65.81
2019-04-14T15:36:30.605Z,67.03
2019-04-14T15:38:56.529Z,66.50
2019-04-14T15:41:22.410Z,67.22
2019-04-14T15:43:48.257Z,65.63
2019-04-14T15:46:14.155Z,66.69
2019-04-14T15:48:39.892Z,66.06
2019-04-14T15:51:05.717Z,67.16
2019-04-14T15:53:37.727Z,68.37
2019-04-14T15:55:59.473Z,67.16
2019-04-14T15:58:45.433Z,67.54
2019-04-14T16:01:13.161Z,68.36
2019-04-14T16:03:59.205Z,68.71
2019-04-14T16:06:29.699Z,69.27
2019-04-14T16:08:57.399Z,69.45
2019-04-14T16:11:30.787Z,70.32
2019-04-14T16:14:07.516Z,71.14
2019-04-14T16:16:35.200Z,70.13
2019-04-14T16:19:08.448Z,70.90
2019-04-14T16:21:34.291Z,70.53
2019-04-14T16:24:00.174Z,70.32
2019-04-14T16:26:27.789Z,70.82
2019-04-14T16:28:55.446Z,71.50
2019-04-14T16:31:39.516Z,71.86
2019-04-14T16:34:13.163Z,71.59
2019-04-14T16:36:39.520Z,71.33
2019-04-14T16:39:06.010Z,71.61
2019-04-14T16:41:31.784Z,71.52
2019-04-14T16:43:57.502Z,70.87
2019-04-14T16:46:23.250Z,72.40
2019-04-14T16:48:48.977Z,72.56
2019-04-14T16:51:22.849Z,73.21
2019-04-14T16:53:48.646Z,72.50
2019-04-14T16:56:28.346Z,72.59
2019-04-14T16:58:56.102Z,71.98
2019-04-14T17:01:26.682Z,72.25
2019-04-14T17:03:52.514Z,71.96
2019-04-14T17:06:18.184Z,72.06
2019-04-14T17:08:44.021Z,71.82
2019-04-14T17:11:09.852Z,72.31
2019-04-14T17:13:37.428Z,72.79
2019-04-14T17:16:21.544Z,72.77
2019-04-14T17:18:49.338Z,72.61
2019-04-14T17:21:19.952Z,73.44
2019-04-14T17:24:02.261Z,73.49
2019-04-14T17:26:41.636Z,74.02
2019-04-14T17:29:24.728Z,74.77
2019-04-14T17:31:58.270Z,75.31
2019-04-14T17:34:28.997Z,75.90
2019-04-14T17:37:08.718Z,76.78
2019-04-14T17:39:48.310Z,77.62
2019-04-14T17:42:18.540Z,77.16
2019-04-14T17:44:46.153Z,76.67
2019-04-14T17:47:26.732Z,77.58
2019-04-14T17:50:06.079Z,77.96
2019-04-14T17:52:42.335Z,79.33
2019-04-14T17:55:15.763Z,79.85
2019-04-14T17:57:49.827Z,78.84
2019-04-14T18:00:32.735Z,78.01
2019-04-14T18:03:02.009Z,77.92
2019-04-14T18:05:32.498Z,76.54
2019-04-14T18:08:00.090Z,75.76
2019-04-14T18:10:29.781Z,76.72
2019-04-14T18:12:57.462Z,76.47
2019-04-14T18:15:25.277Z,77.09
2019-04-14T18:18:09.464Z,78.42
2019-04-14T18:20:42.938Z,79.49
2019-04-14T18:23:08.734Z,80.73
2019-04-14T18:25:34.496Z,81.10
2019-04-14T18:28:17.398Z,82.74
2019-04-14T18:31:03.494Z,83.58
2019-04-14T18:33:31.083Z,83.23
2019-04-14T18:36:15.505Z,85.03
2019-04-14T18:38:43.232Z,85.00
2019-04-14T18:41:23.152Z,85.12
2019-04-14T18:44:05.857Z,83.74
2019-04-14T18:46:45.634Z,83.71
2019-04-14T18:49:13.395Z,84.11
2019-04-14T18:51:41.191Z,83.88
2019-04-14T18:54:08.824Z,84.44
2019-04-14T18:56:54.767Z,85.24
2019-04-14T18:59:39.451Z,85.92
2019-04-14T19:02:05.253Z,86.21
2019-04-14T19:04:31.038Z,86.35
2019-04-14T19:06:57.054Z,86.50
2019-04-14T19:09:22.842Z,86.15
2019-04-14T19:11:50.606Z,85.68
2019-04-14T19:14:21.073Z,84.98
2019-04-14T19:16:51.292Z,84.51
2019-04-14T19:19:19.090Z,84.96
2019-04-14T19:21:44.988Z,85.20
2019-04-14T19:24:10.655Z,85.36
2019-04-14T19:26:36.459Z,84.84
2019-04-14T19:29:02.300Z,84.81
2019-04-14T19:31:28.089Z,84.13
2019-04-14T19:33:53.920Z,84.92
2019-04-14T19:36:19.686Z,85.29
2019-04-14T19:38:45.539Z,85.21
2019-04-14T19:41:11.609Z,85.21
2019-04-14T19:43:37.479Z,85.08
2019-04-14T19:46:04.822Z,85.16
2019-04-14T19:48:30.957Z,85.32
2019-04-14T19:50:56.997Z,86.10
2019-04-14T19:53:23.216Z,85.85
2019-04-14T19:55:49.458Z,85.70
2019-04-14T19:58:15.281Z,86.14
2019-04-14T20:00:41.138Z,85.89
2019-04-14T20:03:08.169Z,86.43
2019-04-14T20:05:35.965Z,86.14
2019-04-14T20:08:03.657Z,86.21
2019-04-14T20:10:29.533Z,86.03
2019-04-14T20:12:55.869Z,86.97
2019-04-14T20:15:23.651Z,86.97
2019-04-14T20:17:51.413Z,86.58
2019-04-14T20:20:31.809Z,86.63
2019-04-14T20:23:02.849Z,86.72
2019-04-14T20:25:48.617Z,86.87
2019-04-14T20:28:16.386Z,87.22
2019-04-14T20:30:44.130Z,86.08
2019-04-14T20:33:10.079Z,86.51
2019-04-14T20:35:35.895Z,86.64
2019-04-14T20:38:01.737Z,87.20
2019-04-14T20:40:27.669Z,87.49
2019-04-14T20:42:53.525Z,86.48
2019-04-14T20:45:19.440Z,86.27
2019-04-14T20:47:45.238Z,86.12
2019-04-14T20:50:11.252Z,85.63
2019-04-14T20:52:37.027Z,86.26
2019-04-14T20:55:04.831Z,86.02
2019-04-14T20:57:30.493Z,86.35
2019-04-14T20:59:56.191Z,86.01
2019-04-14T21:02:29.485Z,85.86
2019-04-14T21:05:12.094Z,85.61
2019-04-14T21:07:42.433Z,85.50
2019-04-14T21:10:18.727Z,85.07
2019-04-14T21:13:02.859Z,85.16
2019-04-14T21:15:39.600Z,85.42
2019-04-14T21:18:13.184Z,85.60
2019-04-14T21:20:41.002Z,85.68
2019-04-14T21:23:15.044Z,85.71
2019-04-14T21:26:00.840Z,85.66
2019-04-14T21:28:27.678Z,84.85
2019-04-14T21:31:04.138Z,85.78
2019-04-14T21:33:31.903Z,85.04
2019-04-14T21:36:05.185Z,85.71
2019-04-14T21:38:41.886Z,85.65
2019-04-14T21:41:21.305Z,86.00
2019-04-14T21:43:47.161Z,85.91
2019-04-14T21:46:13.458Z,85.93
2019-04-14T21:48:39.205Z,86.39
2019-04-14T21:51:05.119Z,86.97
2019-04-14T21:53:30.815Z,86.90
2019-04-14T21:55:56.611Z,86.70
2019-04-14T21:58:27.139Z,86.04
2019-04-14T22:01:05.201Z,86.11
2019-04-14T22:03:49.497Z,85.97
2019-04-14T22:06:23.204Z,86.22
2019-04-14T22:08:50.963Z,85.94
2019-04-14T22:11:26.882Z,86.11
2019-04-14T22:13:52.696Z,86.17
2019-04-14T22:16:18.586Z,86.11
2019-04-14T22:18:44.319Z,86.11
2019-04-14T22:21:10.130Z,86.24
2019-04-14T22:23:35.818Z,86.02
2019-04-14T22:26:02.986Z,86.16
2019-04-14T22:28:28.809Z,86.37
2019-04-14T22:30:54.570Z,86.27
2019-04-14T22:33:20.404Z,86.54
2019-04-14T22:35:46.276Z,86.59
2019-04-14T22:38:12.019Z,86.46
2019-04-14T22:40:37.929Z,86.27
2019-04-14T22:43:03.684Z,86.09
2019-04-14T22:45:29.404Z,85.19
2019-04-14T22:47:55.246Z,85.51
2019-04-14T22:50:20.968Z,85.77
2019-04-14T22:52:46.867Z,85.97
2019-04-14T22:55:12.754Z,85.66
2019-04-14T22:57:38.558Z,84.87
2019-04-14T23:00:08.955Z,85.24
2019-04-14T23:02:53.514Z,84.93
2019-04-14T23:05:27.043Z,84.48
2019-04-14T23:08:12.570Z,84.60
2019-04-14T23:10:58.463Z,84.96
2019-04-14T23:13:26.086Z,85.17
2019-04-14T23:15:59.930Z,85.34
2019-04-14T23:18:27.651Z,84.80
2019-04-14T23:20:55.262Z,85.04
2019-04-14T23:23:25.747Z,85.78
2019-04-14T23:25:51.507Z,85.52
2019-04-14T23:28:17.176Z,85.88
2019-04-14T23:30:43.055Z,85.61
2019-04-14T23:33:08.742Z,85.65
2019-04-14T23:35:34.438Z,85.74
2019-04-14T23:38:00.289Z,85.47
2019-04-14T23:40:25.960Z,85.54
2019-04-14T23:42:51.738Z,84.89
2019-04-14T23:45:17.589Z,84.42
2019-04-14T23:47:43.413Z,84.25
2019-04-14T23:50:09.259Z,83.43
2019-04-14T23:52:34.951Z,83.11
2019-04-14T23:55:00.733Z,83.20
2019-04-14T23:57:26.435Z,83.00
2019-04-14T23:59:52.114Z,82.82
